This is the latest recevied weather packets stored in our database for station/object K5GTX. If no packets are shown the sender has not sent any weather packets the latest 1 day(s).
| Time | Temp. | Humidity | Pressure | Rain* | Wind** | Luminosity | Snow |
|---|---|---|---|---|---|---|---|
| 1778017867 | 33.89° C | 99% | 1009.7 hPa | 0 mm | 0 m/s | 509 W/m² | - |
| 1778017565 | 32.78° C | 99% | 1009.6 hPa | 0 mm | 2.24 m/s, 259° | 493 W/m² | - |
| 1778017262 | 32.78° C | 99% | 1009.7 hPa | 0 mm | 0.89 m/s, 121° | 311 W/m² | - |
| 1778016959 | 32.22° C | 99% | 1009.7 hPa | 0 mm | 0 m/s | 466 W/m² | - |
| 1778016656 | 32.78° C | 99% | 1009.8 hPa | 0 mm | 0 m/s | 234 W/m² | - |
| 1778016352 | 31.67° C | 99% | 1009.6 hPa | 0 mm | 0.89 m/s, 228° | 486 W/m² | - |
| 1778016050 | 32.78° C | 99% | 1009.9 hPa | 0 mm | 1.79 m/s, 232° | 331 W/m² | - |
| 1778015747 | 32.22° C | 99% | 1010.3 hPa | 0 mm | 1.34 m/s, 266° | 174 W/m² | - |
| 1778015443 | 32.78° C | 99% | 1010 hPa | 0 mm | 1.79 m/s, 225° | 418 W/m² | - |
| 1778015140 | 32.78° C | 99% | 1010 hPa | 0 mm | 0 m/s | 650 W/m² | - |
| 1778014837 | 32.78° C | 99% | 1010.3 hPa | 0 mm | 0.89 m/s, 129° | 676 W/m² | - |
| 1778014535 | 31.67° C | 99% | 1010.2 hPa | 0 mm | 0 m/s | 690 W/m² | - |
| 1778014232 | 31.11° C | 99% | 1010.6 hPa | 0 mm | 0.45 m/s, 105° | 267 W/m² | - |
| 1778013930 | 30.56° C | 99% | 1010.3 hPa | 0 mm | 1.34 m/s, 242° | 212 W/m² | - |
| 1778013627 | 30.56° C | 99% | 1010.4 hPa | 0 mm | 0.45 m/s, 195° | 159 W/m² | - |
| 1778013323 | 31.67° C | 99% | 1010.8 hPa | 0 mm | 1.34 m/s, 252° | 221 W/m² | - |
| 1778013020 | 31.67° C | 99% | 1010.5 hPa | 0 mm | 0 m/s | 684 W/m² | - |
| 1778012716 | 31.67° C | 99% | 1010.5 hPa | 0 mm | 0.89 m/s, 150° | 643 W/m² | - |
| 1778012412 | 32.22° C | 99% | 1010.8 hPa | 0 mm | 0 m/s | 714 W/m² | - |
| 1778012110 | 31.11° C | 99% | 1010.7 hPa | 0 mm | 2.24 m/s, 257° | 212 W/m² | - |
| 1778011807 | 30.56° C | 99% | 1010.6 hPa | 0 mm | 0.89 m/s, 195° | 652 W/m² | - |
| 1778011505 | 31.67° C | 99% | 1010.6 hPa | 0 mm | 0.89 m/s, 241° | 420 W/m² | - |
| 1778011200 | 30.56° C | 99% | 1011 hPa | 0 mm | 2.24 m/s, 218° | 393 W/m² | - |
| 1778010898 | 31.11° C | 99% | 1010.9 hPa | 0 mm | 3.58 m/s, 246° | 371 W/m² | - |
| 1778010595 | 30.56° C | 99% | 1011.1 hPa | 0 mm | 1.34 m/s, 247° | 684 W/m² | - |
* Rain latest hour (hover to see other rain measurements)
** Current wind speed in m/s (hover to see current wind gust speed)